N910ZA KCMH-KPIT
Flight info
| Callsign | N910ZA |
|---|---|
| Flight time | N/A |
| Altitude | 15000 |
| Route | OWEBO CTW FEWGA7 |
| Aircraft | TBM8/L-VGDW/C |
Departure
| Time | 2026-05-09 02:39 |
|---|---|
| Airport | John Glenn Columbus International Airport (KCMH) |
Arrival
| Time | N/A |
|---|---|
| Airport | Pittsburgh International Airport (KPIT) |
| Time | Latitude | Longitude | Altitude | Speed | Heading |
|---|---|---|---|---|---|
| 2026-05-09 02:16 | 39.99069 | -82.89374 | 819 ft | 0 kts | 203° |
| 2026-05-09 02:28 | 39.99065 | -82.89389 | 819 ft | 7 kts | 284° |
| 2026-05-09 02:28 | 39.99067 | -82.89395 | 819 ft | 0 kts | 302° |
| 2026-05-09 02:30 | 39.99072 | -82.89402 | 819 ft | 0 kts | 317° |
| 2026-05-09 02:33 | 39.99094 | -82.89414 | 819 ft | 10 kts | 345° |
| 2026-05-09 02:34 | 39.99137 | -82.89414 | 819 ft | 0 kts | 14° |
| 2026-05-09 02:34 | 39.99145 | -82.89411 | 819 ft | 9 kts | 24° |
| 2026-05-09 02:34 | 39.99167 | -82.89359 | 819 ft | 4 kts | 89° |
| 2026-05-09 02:34 | 39.99159 | -82.89209 | 819 ft | 18 kts | 96° |
| 2026-05-09 02:35 | 39.99148 | -82.89010 | 819 ft | 28 kts | 94° |
| 2026-05-09 02:35 | 39.99133 | -82.88775 | 820 ft | 18 kts | 92° |
| 2026-05-09 02:35 | 39.99127 | -82.88626 | 820 ft | 21 kts | 94° |
| 2026-05-09 02:35 | 39.99113 | -82.88388 | 820 ft | 25 kts | 94° |
| 2026-05-09 02:36 | 39.99102 | -82.88224 | 820 ft | 12 kts | 94° |
| 2026-05-09 02:36 | 39.99099 | -82.88128 | 819 ft | 11 kts | 100° |
| 2026-05-09 02:36 | 39.99093 | -82.87975 | 819 ft | 16 kts | 102° |
| 2026-05-09 02:36 | 39.99044 | -82.87848 | 819 ft | 24 kts | 119° |
| 2026-05-09 02:37 | 39.99010 | -82.87609 | 819 ft | 28 kts | 95° |
| 2026-05-09 02:37 | 39.99000 | -82.87417 | 819 ft | 21 kts | 93° |
| 2026-05-09 02:37 | 39.98991 | -82.87340 | 819 ft | 0 kts | 106° |
| 2026-05-09 02:37 | 39.98979 | -82.87362 | 819 ft | 9 kts | 329° |
| 2026-05-09 02:38 | 39.99016 | -82.87361 | 819 ft | 13 kts | 12° |
| 2026-05-09 02:38 | 39.99091 | -82.87345 | 819 ft | 22 kts | 8° |
| 2026-05-09 02:38 | 39.99185 | -82.87413 | 819 ft | 11 kts | 263° |
| 2026-05-09 02:38 | 39.99196 | -82.87699 | 818 ft | 58 kts | 278° |
| 2026-05-09 02:39 | 39.99206 | -82.88397 | 842 ft | 96 kts | 268° |
| 2026-05-09 02:39 | 39.99289 | -82.89323 | 1058 ft | 110 kts | 285° |
| 2026-05-09 02:39 | 39.99361 | -82.90402 | 1301 ft | 130 kts | 281° |
| 2026-05-09 02:39 | 39.99565 | -82.91562 | 1756 ft | 130 kts | 282° |
| 2026-05-09 02:40 | 39.99703 | -82.92811 | 2019 ft | 150 kts | 278° |
| 2026-05-09 02:40 | 39.99922 | -82.94157 | 2530 ft | 147 kts | 281° |
| 2026-05-09 02:40 | 40.00208 | -82.95427 | 3076 ft | 146 kts | 296° |
| 2026-05-09 02:40 | 40.00849 | -82.96203 | 4083 ft | 118 kts | 330° |
| 2026-05-09 02:41 | 40.01710 | -82.96331 | 4461 ft | 142 kts | 1° |
| 2026-05-09 02:41 | 40.02701 | -82.95928 | 4870 ft | 152 kts | 20° |
| 2026-05-09 02:41 | 40.03652 | -82.95484 | 5545 ft | 130 kts | 10° |
| 2026-05-09 02:41 | 40.04587 | -82.95073 | 5711 ft | 159 kts | 16° |
| 2026-05-09 02:42 | 40.05682 | -82.94493 | 5927 ft | 179 kts | 20° |
| 2026-05-09 02:42 | 40.06860 | -82.93878 | 6146 ft | 191 kts | 20° |
| 2026-05-09 02:42 | 40.08164 | -82.93261 | 6289 ft | 200 kts | 10° |
| 2026-05-09 02:42 | 40.09480 | -82.92728 | 6655 ft | 199 kts | 19° |
| 2026-05-09 02:43 | 40.10755 | -82.92031 | 6993 ft | 199 kts | 17° |
| 2026-05-09 02:43 | 40.12048 | -82.91410 | 7318 ft | 198 kts | 15° |
| 2026-05-09 02:43 | 40.13340 | -82.90788 | 7632 ft | 198 kts | 15° |
| 2026-05-09 02:43 | 40.14630 | -82.90157 | 7967 ft | 198 kts | 15° |
| 2026-05-09 02:44 | 40.15919 | -82.89513 | 8289 ft | 198 kts | 15° |
| 2026-05-09 02:44 | 40.17204 | -82.88857 | 8609 ft | 199 kts | 15° |
| 2026-05-09 02:44 | 40.18496 | -82.88182 | 8935 ft | 200 kts | 15° |
| 2026-05-09 02:44 | 40.19783 | -82.87497 | 9266 ft | 200 kts | 15° |
| 2026-05-09 02:45 | 40.21071 | -82.86799 | 9603 ft | 201 kts | 15° |
| 2026-05-09 02:45 | 40.22358 | -82.86089 | 9989 ft | 200 kts | 15° |
| 2026-05-09 02:45 | 40.23641 | -82.85374 | 10332 ft | 200 kts | 15° |
| 2026-05-09 02:45 | 40.24927 | -82.84656 | 10645 ft | 202 kts | 15° |
| 2026-05-09 02:46 | 40.26214 | -82.83941 | 10983 ft | 201 kts | 15° |
| 2026-05-09 02:46 | 40.27503 | -82.83230 | 11299 ft | 201 kts | 15° |
| 2026-05-09 02:46 | 40.28795 | -82.82519 | 11606 ft | 202 kts | 15° |
| 2026-05-09 02:46 | 40.30092 | -82.81808 | 11932 ft | 202 kts | 15° |
| 2026-05-09 02:47 | 40.31388 | -82.81101 | 12256 ft | 202 kts | 15° |
| 2026-05-09 02:47 | 40.32690 | -82.80396 | 12579 ft | 203 kts | 15° |
| 2026-05-09 02:47 | 40.33995 | -82.79690 | 12908 ft | 203 kts | 15° |
| 2026-05-09 02:47 | 40.35342 | -82.78966 | 12990 ft | 217 kts | 15° |
| 2026-05-09 02:48 | 40.36694 | -82.78251 | 12988 ft | 228 kts | 15° |
| 2026-05-09 02:48 | 40.38220 | -82.77448 | 12993 ft | 235 kts | 15° |
| 2026-05-09 02:48 | 40.39759 | -82.76646 | 12988 ft | 241 kts | 15° |
| 2026-05-09 02:48 | 40.41311 | -82.75842 | 12988 ft | 245 kts | 15° |
| 2026-05-09 02:49 | 40.42926 | -82.75010 | 12987 ft | 247 kts | 15° |
| 2026-05-09 02:49 | 40.44516 | -82.74193 | 12990 ft | 249 kts | 15° |
| 2026-05-09 02:49 | 40.46135 | -82.73363 | 12989 ft | 251 kts | 15° |
| 2026-05-09 02:49 | 40.47763 | -82.72527 | 12988 ft | 252 kts | 15° |
| 2026-05-09 02:50 | 40.49398 | -82.71690 | 12988 ft | 252 kts | 15° |
| 2026-05-09 02:50 | 40.51034 | -82.70852 | 12988 ft | 253 kts | 15° |
| 2026-05-09 02:50 | 40.52679 | -82.70011 | 12989 ft | 254 kts | 15° |
| 2026-05-09 02:50 | 40.54323 | -82.69172 | 12985 ft | 254 kts | 15° |
| 2026-05-09 02:51 | 40.55973 | -82.68332 | 12988 ft | 254 kts | 15° |
| 2026-05-09 02:51 | 40.57631 | -82.67493 | 12989 ft | 257 kts | 15° |
| 2026-05-09 02:51 | 40.59304 | -82.66648 | 12991 ft | 259 kts | 15° |
| 2026-05-09 02:51 | 40.60885 | -82.65465 | 13030 ft | 271 kts | 40° |
| 2026-05-09 02:52 | 40.61871 | -82.63312 | 13026 ft | 281 kts | 70° |
| 2026-05-09 02:52 | 40.62448 | -82.60844 | 13012 ft | 283 kts | 74° |
| 2026-05-09 02:52 | 40.62978 | -82.58346 | 13007 ft | 284 kts | 75° |
| 2026-05-09 02:52 | 40.63500 | -82.55839 | 12996 ft | 285 kts | 75° |
| 2026-05-09 02:53 | 40.64025 | -82.53324 | 12994 ft | 285 kts | 75° |
| 2026-05-09 02:53 | 40.64549 | -82.50808 | 13007 ft | 284 kts | 75° |
| 2026-05-09 02:53 | 40.65075 | -82.48302 | 13100 ft | 285 kts | 75° |
| 2026-05-09 02:53 | 40.65605 | -82.45781 | 13202 ft | 286 kts | 76° |
| 2026-05-09 02:54 | 40.65958 | -82.43210 | 13279 ft | 286 kts | 85° |
| 2026-05-09 02:54 | 40.66156 | -82.40609 | 13254 ft | 285 kts | 84° |
| 2026-05-09 02:54 | 40.66305 | -82.38091 | 13551 ft | 273 kts | 86° |
| 2026-05-09 02:54 | 40.66696 | -82.35660 | 13563 ft | 276 kts | 75° |
| 2026-05-09 02:55 | 40.67149 | -82.33212 | 13635 ft | 275 kts | 79° |
| 2026-05-09 02:55 | 40.67482 | -82.30739 | 13768 ft | 272 kts | 83° |
| 2026-05-09 02:55 | 40.67764 | -82.28287 | 13889 ft | 270 kts | 83° |
| 2026-05-09 02:55 | 40.68072 | -82.25833 | 13971 ft | 271 kts | 82° |
| 2026-05-09 02:56 | 40.68394 | -82.23396 | 14112 ft | 269 kts | 81° |
| 2026-05-09 02:56 | 40.68706 | -82.20970 | 14258 ft | 268 kts | 82° |
| 2026-05-09 02:56 | 40.69012 | -82.18549 | 14406 ft | 268 kts | 82° |
| 2026-05-09 02:56 | 40.69318 | -82.16127 | 14529 ft | 268 kts | 82° |
| 2026-05-09 02:57 | 40.69627 | -82.13696 | 14645 ft | 269 kts | 82° |
| 2026-05-09 02:57 | 40.69936 | -82.11260 | 14758 ft | 270 kts | 81° |
| 2026-05-09 02:57 | 40.70245 | -82.08819 | 14873 ft | 270 kts | 81° |
| 2026-05-09 02:57 | 40.70554 | -82.06374 | 14990 ft | 271 kts | 81° |
| 2026-05-09 02:58 | 40.70864 | -82.03904 | 15004 ft | 276 kts | 82° |
| 2026-05-09 02:58 | 40.71179 | -82.01394 | 15006 ft | 279 kts | 81° |
| 2026-05-09 02:58 | 40.71498 | -81.98853 | 15002 ft | 282 kts | 81° |
| 2026-05-09 02:58 | 40.71821 | -81.96288 | 15007 ft | 285 kts | 81° |
| 2026-05-09 02:59 | 40.72145 | -81.93699 | 15007 ft | 287 kts | 81° |
| 2026-05-09 02:59 | 40.72459 | -81.91100 | 15009 ft | 288 kts | 83° |
| 2026-05-09 02:59 | 40.72726 | -81.88483 | 15008 ft | 288 kts | 83° |
| 2026-05-09 02:59 | 40.72927 | -81.86750 | 15006 ft | 289 kts | 81° |
| 2026-05-09 03:00 | 40.73270 | -81.84136 | 15009 ft | 289 kts | 81° |
| 2026-05-09 03:00 | 40.73608 | -81.81525 | 15007 ft | 289 kts | 82° |
| 2026-05-09 03:00 | 40.73929 | -81.78907 | 15008 ft | 289 kts | 82° |
| 2026-05-09 03:00 | 40.74249 | -81.76294 | 15006 ft | 289 kts | 82° |
| 2026-05-09 03:01 | 40.74490 | -81.73675 | 15031 ft | 288 kts | 94° |
| 2026-05-09 03:01 | 40.74112 | -81.71106 | 15024 ft | 285 kts | 111° |
| 2026-05-09 03:01 | 40.73537 | -81.68601 | 14989 ft | 287 kts | 105° |
| 2026-05-09 03:01 | 40.73511 | -81.65974 | 14990 ft | 288 kts | 84° |
| 2026-05-09 03:02 | 40.73808 | -81.63372 | 15003 ft | 287 kts | 81° |
| 2026-05-09 03:02 | 40.74184 | -81.60788 | 15013 ft | 288 kts | 82° |
| 2026-05-09 03:02 | 40.74237 | -81.58160 | 15023 ft | 287 kts | 97° |
| 2026-05-09 03:02 | 40.74064 | -81.55542 | 15008 ft | 287 kts | 97° |
| 2026-05-09 03:03 | 40.74037 | -81.52911 | 15003 ft | 286 kts | 91° |
| 2026-05-09 03:03 | 40.74102 | -81.50289 | 15006 ft | 286 kts | 90° |
| 2026-05-09 03:03 | 40.74140 | -81.47670 | 15012 ft | 286 kts | 92° |
| 2026-05-09 03:03 | 40.74137 | -81.45050 | 15007 ft | 286 kts | 92° |
| 2026-05-09 03:04 | 40.74138 | -81.42431 | 15006 ft | 286 kts | 92° |
| 2026-05-09 03:04 | 40.74152 | -81.39812 | 15006 ft | 285 kts | 92° |
| 2026-05-09 03:04 | 40.74164 | -81.37201 | 15006 ft | 284 kts | 92° |
| 2026-05-09 03:04 | 40.74172 | -81.34591 | 15010 ft | 285 kts | 92° |
| 2026-05-09 03:05 | 40.74179 | -81.31978 | 15009 ft | 285 kts | 92° |
| 2026-05-09 03:05 | 40.74186 | -81.29364 | 15009 ft | 286 kts | 92° |
| 2026-05-09 03:05 | 40.74193 | -81.26741 | 15013 ft | 286 kts | 92° |
| 2026-05-09 03:05 | 40.74200 | -81.24120 | 15008 ft | 286 kts | 92° |
| 2026-05-09 03:06 | 40.74207 | -81.21499 | 15013 ft | 286 kts | 92° |
| 2026-05-09 03:06 | 40.74211 | -81.18883 | 15010 ft | 285 kts | 92° |
| 2026-05-09 03:06 | 40.74216 | -81.16268 | 15011 ft | 285 kts | 92° |
| 2026-05-09 03:06 | 40.74220 | -81.13656 | 15014 ft | 285 kts | 92° |
| 2026-05-09 03:07 | 40.74222 | -81.11081 | 15015 ft | 284 kts | 92° |
| 2026-05-09 03:07 | 40.74226 | -81.08478 | 15018 ft | 284 kts | 92° |
| 2026-05-09 03:07 | 40.74227 | -81.05867 | 15018 ft | 285 kts | 92° |
| 2026-05-09 03:07 | 40.74229 | -81.03257 | 15021 ft | 284 kts | 92° |
| 2026-05-09 03:08 | 40.74231 | -81.00652 | 15020 ft | 285 kts | 92° |
| 2026-05-09 03:08 | 40.74231 | -80.98038 | 15020 ft | 285 kts | 92° |
| 2026-05-09 03:08 | 40.74231 | -80.95423 | 15023 ft | 285 kts | 92° |
| 2026-05-09 03:08 | 40.74230 | -80.92803 | 15024 ft | 286 kts | 92° |
| 2026-05-09 03:09 | 40.74228 | -80.90185 | 15022 ft | 285 kts | 92° |
| 2026-05-09 03:09 | 40.74228 | -80.87566 | 15028 ft | 286 kts | 92° |
| 2026-05-09 03:09 | 40.74225 | -80.84949 | 15031 ft | 285 kts | 92° |
| 2026-05-09 03:09 | 40.74221 | -80.82327 | 15029 ft | 286 kts | 92° |
| 2026-05-09 03:10 | 40.74218 | -80.79714 | 15032 ft | 285 kts | 92° |
| 2026-05-09 03:10 | 40.74214 | -80.77095 | 15031 ft | 285 kts | 92° |
| 2026-05-09 03:10 | 40.74208 | -80.74481 | 15033 ft | 285 kts | 92° |
| 2026-05-09 03:10 | 40.74202 | -80.71862 | 15034 ft | 286 kts | 92° |
| 2026-05-09 03:11 | 40.74203 | -80.69239 | 15037 ft | 287 kts | 89° |
| 2026-05-09 03:11 | 40.74292 | -80.66611 | 15038 ft | 287 kts | 86° |
| 2026-05-09 03:11 | 40.74345 | -80.63976 | 15044 ft | 288 kts | 93° |
| 2026-05-09 03:11 | 40.74249 | -80.61343 | 15042 ft | 288 kts | 97° |
| 2026-05-09 03:12 | 40.74134 | -80.58710 | 15033 ft | 288 kts | 94° |
| 2026-05-09 03:12 | 40.74133 | -80.56076 | 15040 ft | 287 kts | 91° |
| 2026-05-09 03:12 | 40.74160 | -80.53444 | 15041 ft | 287 kts | 91° |
| 2026-05-09 03:12 | 40.73984 | -80.50834 | 15066 ft | 285 kts | 107° |
| 2026-05-09 03:13 | 40.72185 | -80.46291 | 15059 ft | 277 kts | 138° |
| 2026-05-09 03:13 | 40.70770 | -80.44590 | 15053 ft | 276 kts | 146° |
| 2026-05-09 03:13 | 40.69322 | -80.42907 | 15054 ft | 280 kts | 145° |
| 2026-05-09 03:14 | 40.67848 | -80.41218 | 15052 ft | 282 kts | 146° |
| 2026-05-09 03:14 | 40.66352 | -80.39538 | 15053 ft | 284 kts | 146° |
| 2026-05-09 03:14 | 40.64852 | -80.37841 | 15054 ft | 285 kts | 146° |
| 2026-05-09 03:14 | 40.63354 | -80.36123 | 15053 ft | 286 kts | 145° |
| 2026-05-09 03:15 | 40.61849 | -80.34408 | 15045 ft | 285 kts | 148° |
| 2026-05-09 03:15 | 40.60335 | -80.32788 | 15022 ft | 287 kts | 143° |
| 2026-05-09 03:15 | 40.59152 | -80.30634 | 15014 ft | 295 kts | 122° |
| 2026-05-09 03:15 | 40.58477 | -80.28074 | 15017 ft | 298 kts | 105° |
| 2026-05-09 03:16 | 40.58300 | -80.25352 | 14788 ft | 296 kts | 94° |
| 2026-05-09 03:16 | 40.58227 | -80.22680 | 14531 ft | 289 kts | 95° |
| 2026-05-09 03:16 | 40.58133 | -80.20060 | 14275 ft | 285 kts | 95° |
| 2026-05-09 03:16 | 40.58040 | -80.17470 | 14014 ft | 281 kts | 95° |
| 2026-05-09 03:17 | 40.57955 | -80.14906 | 13751 ft | 278 kts | 95° |
| 2026-05-09 03:17 | 40.57871 | -80.12375 | 13465 ft | 276 kts | 95° |
| 2026-05-09 03:17 | 40.57782 | -80.09862 | 13178 ft | 274 kts | 96° |
| 2026-05-09 03:17 | 40.57692 | -80.07396 | 12898 ft | 272 kts | 96° |
| 2026-05-09 03:18 | 40.57596 | -80.04915 | 12611 ft | 271 kts | 97° |
| 2026-05-09 03:18 | 40.57335 | -80.02490 | 12391 ft | 264 kts | 117° |
| 2026-05-09 03:18 | 40.56390 | -80.00573 | 12000 ft | 237 kts | 139° |
| 2026-05-09 03:18 | 40.55328 | -79.98997 | 11218 ft | 223 kts | 143° |
| 2026-05-09 03:19 | 40.54304 | -79.97531 | 10440 ft | 211 kts | 148° |
| 2026-05-09 03:19 | 40.53254 | -79.96221 | 9520 ft | 205 kts | 152° |
| 2026-05-09 03:19 | 40.52192 | -79.94976 | 8477 ft | 203 kts | 151° |
| 2026-05-09 03:19 | 40.51160 | -79.93649 | 7576 ft | 215 kts | 139° |
| 2026-05-09 03:20 | 40.50267 | -79.92103 | 6962 ft | 202 kts | 148° |
| 2026-05-09 03:20 | 40.49105 | -79.91136 | 6302 ft | 190 kts | 171° |
| 2026-05-09 03:20 | 40.47970 | -79.90999 | 6327 ft | 145 kts | 198° |
| 2026-05-09 03:20 | 40.47303 | -79.91915 | 5648 ft | 157 kts | 262° |
| 2026-05-09 03:21 | 40.47334 | -79.93347 | 5195 ft | 155 kts | 264° |
| 2026-05-09 03:21 | 40.47531 | -79.94675 | 4958 ft | 150 kts | 290° |
| 2026-05-09 03:21 | 40.48041 | -79.95899 | 4691 ft | 154 kts | 295° |
| 2026-05-09 03:21 | 40.48289 | -79.97243 | 4371 ft | 152 kts | 275° |
| 2026-05-09 03:22 | 40.48347 | -79.98619 | 4068 ft | 150 kts | 273° |
| 2026-05-09 03:22 | 40.48385 | -79.99947 | 4034 ft | 147 kts | 272° |
| 2026-05-09 03:22 | 40.48413 | -80.01371 | 3828 ft | 165 kts | 273° |
| 2026-05-09 03:22 | 40.48445 | -80.02931 | 3569 ft | 176 kts | 268° |
| 2026-05-09 03:23 | 40.48398 | -80.04520 | 3330 ft | 160 kts | 270° |
| 2026-05-09 03:23 | 40.48462 | -80.05912 | 3074 ft | 147 kts | 273° |
| 2026-05-09 03:23 | 40.48514 | -80.07175 | 3038 ft | 130 kts | 271° |
| 2026-05-09 03:23 | 40.48541 | -80.08289 | 3028 ft | 117 kts | 271° |
| 2026-05-09 03:24 | 40.48572 | -80.09349 | 2945 ft | 119 kts | 271° |
| 2026-05-09 03:24 | 40.48602 | -80.10457 | 2790 ft | 124 kts | 271° |
| 2026-05-09 03:24 | 40.48633 | -80.11598 | 2626 ft | 128 kts | 271° |
| 2026-05-09 03:24 | 40.48668 | -80.12784 | 2453 ft | 131 kts | 270° |
| 2026-05-09 03:25 | 40.48703 | -80.13988 | 2278 ft | 132 kts | 270° |
| 2026-05-09 03:25 | 40.48735 | -80.15142 | 2109 ft | 124 kts | 272° |
| 2026-05-09 03:25 | 40.48764 | -80.16229 | 1918 ft | 114 kts | 271° |
| 2026-05-09 03:25 | 40.48784 | -80.17254 | 1758 ft | 112 kts | 272° |
| 2026-05-09 03:26 | 40.48811 | -80.18276 | 1605 ft | 112 kts | 272° |
| 2026-05-09 03:26 | 40.48840 | -80.19301 | 1447 ft | 110 kts | 274° |
| 2026-05-09 03:26 | 40.48868 | -80.20198 | 1314 ft | 93 kts | 269° |
| 2026-05-09 03:26 | 40.48893 | -80.21077 | 1163 ft | 94 kts | 276° |
| 2026-05-09 03:27 | 40.48906 | -80.21816 | 1137 ft | 60 kts | 270° |